Stations météo

Publicité
Epinal, France (7173): Température de l'air & dewpoint: 12.08.2019 12:00:00 - 18.08.2019 12:00:00 (CEST)Epinal, France (7173): Vitesse du vent & gusts: 12.08.2019 12:00:00 - 18.08.2019 12:00:00 (CEST)Epinal, France (7173): Direction du vent: 12.08.2019 12:00:00 - 18.08.2019 12:00:00 (CEST)Epinal, France (7173): Ensoleillement: 12.08.2019 12:00:00 - 18.08.2019 12:00:00 (CEST)Epinal, France (7173): Quantités de précipitations: 12.08.2019 12:00:00 - 18.08.2019 12:00:00 (CEST)
Date & Time tt [°C] td [°C] ff [km/h] ff [knt] fx [km/h] fx [knt] dd sd [min] rr [mm]
18.08.2019 12:00:00 27,0 15,1 22 12 35 19 SSW 60 0,0
18.08.2019 11:00:00 25,6 15,0 22 12 39 21 S 36 0,0
18.08.2019 10:00:00 23,6 14,9 22 12 39 21 S 54 0,0
18.08.2019 09:00:00 22,6 15,2 18 10 31 17 SSW 42 0,0
18.08.2019 08:00:00 20,9 15,2 11 6 21 11 S 54 -
18.08.2019 07:00:00 16,7 14,5 4 2 9 5 SSE 0 0,0
18.08.2019 06:00:00 17,2 14,8 2 1 8 4 SE 0 0,0
18.08.2019 05:00:00 19,7 15,6 4 2 18 10 SSW 0 0,0
18.08.2019 04:00:00 19,5 15,6 8 4 11 6 S 0 0,0
18.08.2019 03:00:00 18,3 15,7 8 4 11 6 SSW 0 0,0
18.08.2019 02:00:00 17,1 16,1 0 0 5 3 N 0 -
18.08.2019 01:00:00 16,7 15,9 2 1 5 3 ESE 0 0,0
18.08.2019 00:00:00 16,9 15,9 4 2 5 3 SE 0 0,0
17.08.2019 23:00:00 17,4 16,1 0 0 4 2 N 0 0,0
17.08.2019 22:00:00 17,6 15,9 0 0 4 2 N 0 0,0
17.08.2019 21:00:00 18,0 16,0 0 0 9 5 N 0 0,0
17.08.2019 20:00:00 18,8 15,7 4 2 11 6 NE 0 -
17.08.2019 19:00:00 19,2 16,8 4 2 11 6 NE 0 0,0
17.08.2019 18:00:00 19,9 15,9 2 1 11 6 N 0 0,2
17.08.2019 17:00:00 21,0 15,3 4 2 9 5 N 0 0,0
17.08.2019 16:00:00 20,8 14,0 4 2 13 7 N 0 0,0
17.08.2019 15:00:00 20,6 14,0 11 6 26 14 WSW 0 0,0
17.08.2019 14:00:00 21,2 14,4 16 9 26 14 SSW 0 -
17.08.2019 13:00:00 20,1 14,7 15 8 34 18 SW 0 0,0
17.08.2019 12:00:00 21,1 14,0 18 10 35 19 SW 6 0,0
17.08.2019 11:00:00 21,4 13,8 18 10 29 16 SW 6 0,0
17.08.2019 10:00:00 20,3 13,3 18 10 29 16 SSW 0 0,0
17.08.2019 09:00:00 19,5 13,0 13 7 22 12 S 0 0,0
17.08.2019 08:00:00 18,7 12,4 9 5 21 11 S 0 -
17.08.2019 07:00:00 18,8 12,1 13 7 24 13 SSW 0 0,0
17.08.2019 06:00:00 18,6 11,7 8 4 16 9 S 0 0,0
17.08.2019 05:00:00 18,2 11,5 9 5 18 10 SSW 0 0,0
17.08.2019 04:00:00 17,7 11,3 8 4 13 7 S 0 0,0
17.08.2019 03:00:00 17,6 10,9 4 2 15 8 S 0 0,0
17.08.2019 02:00:00 17,5 11,3 4 2 11 6 S 0 -
17.08.2019 01:00:00 17,9 11,7 8 4 15 8 S 0 0,0
17.08.2019 00:00:00 17,4 12,3 8 4 11 6 SE 0 0,0
16.08.2019 23:00:00 17,5 12,2 0 0 8 4 N 0 0,0
16.08.2019 22:00:00 19,0 12,5 4 2 9 5 SSE 0 0,0
16.08.2019 21:00:00 20,8 11,4 5 3 13 7 SSE 0 0,0
16.08.2019 20:00:00 21,8 11,2 8 4 21 11 S 12 -
16.08.2019 19:00:00 22,7 10,8 13 7 22 12 SSW 36 0,0
16.08.2019 18:00:00 24,1 11,1 11 6 22 12 SSW 48 0,0
16.08.2019 17:00:00 23,7 10,4 15 8 26 14 S 42 0,0
16.08.2019 16:00:00 24,1 10,4 11 6 26 14 S 48 0,0
16.08.2019 15:00:00 23,7 8,9 13 7 26 14 WSW 42 0,0
16.08.2019 14:00:00 22,5 10,3 9 5 24 13 W 42 -
16.08.2019 13:00:00 22,2 10,7 11 6 24 13 SW 60 0,0
16.08.2019 12:00:00 21,6 10,7 9 5 24 13 S 54 0,0
16.08.2019 11:00:00 20,5 12,2 9 5 16 9 SW 42 0,0
16.08.2019 10:00:00 18,9 12,9 4 2 9 5 S 60 0,0
16.08.2019 09:00:00 16,6 12,7 0 0 5 3 N 30 0,0
16.08.2019 08:00:00 14,0 12,6 0 0 8 4 N 42 -
16.08.2019 07:00:00 10,9 10,4 4 2 5 3 SE 0 0,0
16.08.2019 06:00:00 10,1 9,2 0 0 2 1 N 0 0,0
16.08.2019 05:00:00 11,4 10,6 0 0 5 3 N 0 0,0
16.08.2019 04:00:00 12,8 11,2 2 1 4 2 ESE 0 0,0
16.08.2019 03:00:00 14,5 12,4 0 0 2 1 N 0 0,0
16.08.2019 02:00:00 14,2 12,1 2 1 4 2 ESE 0 -
16.08.2019 01:00:00 14,7 12,6 0 0 4 2 N 0 0,0
16.08.2019 00:00:00 14,7 12,6 4 2 8 4 SE 0 0,0
15.08.2019 23:00:00 15,6 13,1 4 2 9 5 S 0 0,0
15.08.2019 22:00:00 16,1 13,0 5 3 8 4 S 0 0,0
15.08.2019 21:00:00 17,2 11,9 9 5 31 17 WSW 0 0,2
15.08.2019 20:00:00 20,3 9,8 13 7 31 17 W 0 -
15.08.2019 19:00:00 21,3 9,8 18 10 44 24 W 42 0,0
15.08.2019 18:00:00 22,0 10,5 22 12 41 22 W 18 0,0
15.08.2019 17:00:00 21,6 13,0 16 9 42 23 WSW 12 0,0
15.08.2019 16:00:00 22,1 12,4 29 16 52 28 WSW 18 0,0
15.08.2019 15:00:00 20,8 14,4 22 12 35 19 SSW 24 0,0
15.08.2019 14:00:00 20,0 15,2 22 12 37 20 SSW 12 -
15.08.2019 13:00:00 19,0 14,7 18 10 34 18 SSW 0 0,0
15.08.2019 12:00:00 18,1 14,2 21 11 34 18 SSW 12 0,0
15.08.2019 11:00:00 16,6 14,1 22 12 35 19 SW 0 0,0
15.08.2019 10:00:00 15,8 14,0 15 8 35 19 SSW 0 0,4
15.08.2019 09:00:00 18,2 11,7 18 10 31 17 SSW 0 0,0
15.08.2019 08:00:00 17,2 11,5 11 6 26 14 SSW 0 -
15.08.2019 07:00:00 16,9 10,7 15 8 24 13 SSW 0 0,0
15.08.2019 06:00:00 17,0 10,1 11 6 22 12 SSW 0 0,0
15.08.2019 05:00:00 16,8 10,2 9 5 26 14 S 0 0,0
15.08.2019 04:00:00 15,7 10,2 8 4 13 7 SSW 0 0,0
15.08.2019 03:00:00 13,6 10,0 2 1 5 3 SSW 0 0,0
15.08.2019 02:00:00 13,2 10,2 2 1 5 3 S 0 -
15.08.2019 01:00:00 13,9 10,3 0 0 4 2 N 0 0,0
15.08.2019 00:00:00 13,8 10,4 0 0 4 2 N 0 0,0
14.08.2019 23:00:00 15,0 10,4 0 0 5 3 N 0 0,0
14.08.2019 22:00:00 16,9 10,5 2 1 9 5 S 0 0,0
14.08.2019 21:00:00 20,0 9,8 5 3 13 7 SSE 24 0,0
14.08.2019 20:00:00 21,7 8,9 8 4 16 9 SSW 60 -
14.08.2019 19:00:00 22,8 8,9 13 7 18 10 SSW 42 0,0
14.08.2019 18:00:00 22,9 8,6 8 4 22 12 S 48 0,0
14.08.2019 17:00:00 23,5 8,4 11 6 24 13 W 42 0,0
14.08.2019 16:00:00 23,0 8,7 8 4 26 14 SSW 42 0,0
14.08.2019 15:00:00 - - - - - - - - -
14.08.2019 14:00:00 21,8 10,6 8 4 22 12 W 42 -
14.08.2019 13:00:00 21,4 9,6 11 6 24 13 WSW 60 0,0
14.08.2019 12:00:00 19,9 8,2 5 3 21 11 SW 48 0,0
14.08.2019 11:00:00 19,1 9,6 8 4 13 7 SSW 42 0,0
14.08.2019 10:00:00 15,9 10,0 5 3 8 4 SSW 0 0,0
14.08.2019 09:00:00 13,7 9,7 4 2 5 3 SW 24 0,0
14.08.2019 08:00:00 11,5 8,7 0 0 4 2 N 48 -
14.08.2019 07:00:00 7,9 7,3 0 0 4 2 N 0 0,2
14.08.2019 06:00:00 8,0 7,4 4 2 5 3 ESE 0 0,0
14.08.2019 05:00:00 8,1 7,5 4 2 5 3 ESE 0 0,0
14.08.2019 04:00:00 8,5 7,9 5 3 8 4 SE 0 0,0
14.08.2019 03:00:00 8,8 8,0 2 1 5 3 E 0 0,0
14.08.2019 02:00:00 9,4 8,3 2 1 4 2 E 0 -
14.08.2019 01:00:00 10,1 8,4 4 2 5 3 ESE 0 0,0
14.08.2019 00:00:00 11,0 8,9 4 2 4 2 ESE 0 0,0
13.08.2019 23:00:00 12,1 9,3 4 2 5 3 SE 0 0,0
13.08.2019 22:00:00 13,8 8,8 2 1 5 3 SSE 0 0,0
13.08.2019 21:00:00 16,5 9,2 4 2 11 6 S 6 0,0
13.08.2019 20:00:00 18,5 7,0 8 4 18 10 WSW 18 -
13.08.2019 19:00:00 19,5 6,6 9 5 21 11 SSW 30 0,0
13.08.2019 18:00:00 19,8 6,5 11 6 21 11 NW 18 0,0
13.08.2019 17:00:00 19,6 6,7 13 7 24 13 WSW 48 0,0
13.08.2019 16:00:00 20,4 6,3 8 4 24 13 WSW 54 0,0
13.08.2019 15:00:00 18,4 6,9 8 4 22 12 SW 36 0,0
13.08.2019 14:00:00 18,3 7,4 8 4 21 11 N 36 -
13.08.2019 13:00:00 18,1 7,2 8 4 24 13 W 36 0,0
13.08.2019 12:00:00 17,4 9,3 9 5 21 11 WNW 42 0,0
13.08.2019 11:00:00 16,3 9,5 9 5 24 13 WNW 42 0,0
13.08.2019 10:00:00 15,1 10,7 8 4 15 8 WNW 36 0,0
13.08.2019 09:00:00 13,4 11,1 8 4 16 9 SW 12 0,0
13.08.2019 08:00:00 12,1 11,0 8 4 13 7 SSW 0 -
13.08.2019 07:00:00 11,9 10,8 5 3 13 7 SW 0 0,0
13.08.2019 06:00:00 12,3 10,9 5 3 9 5 S 0 0,0
13.08.2019 05:00:00 12,9 11,1 4 2 13 7 SW 0 0,0
13.08.2019 04:00:00 13,2 11,4 8 4 13 7 SW 0 0,0
13.08.2019 03:00:00 12,8 11,5 9 5 13 7 SW 0 0,0
13.08.2019 02:00:00 12,3 11,7 8 4 13 7 SSW 0 -
13.08.2019 01:00:00 12,6 11,8 0 0 8 4 N 0 0,0
13.08.2019 00:00:00 14,1 12,5 4 2 16 9 SSE 0 0,0
12.08.2019 23:00:00 15,1 13,8 8 4 13 7 S 0 0,4
12.08.2019 22:00:00 15,4 13,6 9 5 15 8 SSW 0 0,0
12.08.2019 21:00:00 16,0 13,7 5 3 11 6 S 0 0,0
12.08.2019 20:00:00 17,2 13,5 4 2 15 8 S 30 -
12.08.2019 19:00:00 16,5 13,6 8 4 15 8 S 0 0,0
12.08.2019 18:00:00 16,3 12,5 4 2 44 24 W 0 0,8
12.08.2019 17:00:00 20,8 10,9 16 9 28 15 SW 30 0,0
12.08.2019 16:00:00 21,5 10,3 13 7 24 13 SSW 60 0,0
12.08.2019 15:00:00 20,7 11,6 9 5 22 12 S 48 0,0
12.08.2019 14:00:00 19,4 11,7 5 3 15 8 SW 42 -
12.08.2019 13:00:00 18,4 12,8 5 3 15 8 W 36 0,0
12.08.2019 12:00:00 16,5 13,4 9 5 13 7 SW 0 0,0

tt = Température de l'air
td = dewpoint
ff = Vitesse du vent
fx = gusts
dd = Direction du vent
sd = Ensoleillement
rr = Quantités de précipitations

stations d'obs. à proximité